Aérodrome :
LOGIN :

S'inscrire | Disclaimer

   EN    FR    IT 

 










Légende :    VFR   VFR Marginal   IFR   IFR Intensif   IFR Très Intensif
Visi : 
Plafond : 
>= 8 km
>= 3000ft
5 à 8 km
1000 à 3000 ft
1500m à 5 km
500 à 1000 ft
800 à 1500m
200 à 500 ft
< 800m
< 200 ft
Symboles :   Orages  Brouillard  Fortes neiges  Fortes précipitations  Vent > 20 kt
SIGMETs :   Divers  Orages  Givrage  Turbulence  Onde Orograph.  Cendres Volcan.






- Altitude de l'aérodrome : 370 ft


EBBE - Beauvechain AB

DERNIER METAR :
  • 180825Z AUTO 31003KT 9999 NCD 08/04 Q1023 BLU

METARs EXPIRÉS :
  • 180755Z AUTO VRB02KT 9999 FEW150/// 07/04 Q1023 BLU
  • 180725Z AUTO VRB02KT 9999 NCD 05/04 Q1023 BLU
  • 180720Z AUTO VRB02KT 9000 NCD 05/04 Q1023 BLU
  • 180655Z AUTO VRB02KT 7000 NCD 04/03 Q1023 WHT
  • 180643Z AUTO VRB02KT 5000 NCD 04/03 Q1023 WHT
  • 180625Z AUTO VRB01KT 4400 BR NCD 03/02 Q1023 GRN
  • 180555Z AUTO VRB02KT 4800 NCD 02/02 Q1023 GRN

Prévision TAF périmée.



MET'MAP, la Météo Aéronautique d'un coup d'oeil ! - Copyright ORBIFLY Décembre 2007 - Disclaimer

ORBIFLY MET'MAP TEAM :

Programmation & Développement : Alexandra Zaïnal
Sur une idée originale de : Baudouin d'Aumeries
Assistance à la programmation : Marc-Olivier Méhu
Soutien technique & logistique : Manuel Goepfert

Contact : metmap@orbifly.com




SOURCES & CREDITS :

   NOAA